Time;durP1;ratioP1;P1;durP2;ratioP2;P2;SDS_P1;SDS_P2;PMS_P1;PMS_P2;Temp;Humidity;BMP_temperature;BMP_pressure;BME280_temperature;BME280_humidity;BME280_pressure;Samples;Min_cycle;Max_cycle;Signal;HPM_P1;HPM_P2
2023/12/25 00:00:30;;;;;;;0.63;0.60;;;;;;;;;;10294131;28;20269;-69
2023/12/25 00:05:30;;;;;;;0.67;0.67;;;;;;;;;;10293677;28;20187;-68
2023/12/25 00:10:31;;;;;;;1.10;1.10;;;;;;;;;;10293438;28;20254;-68
2023/12/25 00:15:31;;;;;;;1.80;0.70;;;;;;;;;;10293392;28;20202;-68
2023/12/25 00:20:31;;;;;;;0.73;0.73;;;;;;;;;;10293076;28;20241;-68
2023/12/25 00:25:31;;;;;;;1.80;0.80;;;;;;;;;;10293233;28;20573;-68
2023/12/25 00:30:31;;;;;;;1.03;0.93;;;;;;;;;;10292328;28;20214;-68
2023/12/25 00:35:32;;;;;;;1.00;0.90;;;;;;;;;;10287685;28;20241;-68
2023/12/25 00:40:32;;;;;;;0.70;0.70;;;;;;;;;;10292227;28;20230;-68
2023/12/25 00:45:32;;;;;;;1.60;0.80;;;;;;;;;;10274872;28;20273;-68
2023/12/25 00:50:32;;;;;;;1.13;0.90;;;;;;;;;;10292027;28;20218;-68
2023/12/25 00:55:32;;;;;;;1.40;1.00;;;;;;;;;;10290567;28;20187;-68
2023/12/25 01:00:32;;;;;;;0.87;0.87;;;;;;;;;;10274406;28;20581;-68
2023/12/25 01:05:33;;;;;;;2.07;0.97;;;;;;;;;;10270428;28;20182;-68
2023/12/25 01:10:33;;;;;;;1.27;0.90;;;;;;;;;;10291304;28;20485;-68
2023/12/25 01:15:33;;;;;;;1.00;0.90;;;;;;;;;;10291178;28;20664;-68
2023/12/25 01:20:34;;;;;;;1.13;0.90;;;;;;;;;;10290679;28;20218;-68
2023/12/25 01:25:34;;;;;;;1.20;1.10;;;;;;;;;;10270062;28;20248;-68
2023/12/25 01:30:34;;;;;;;1.33;0.83;;;;;;;;;;10290307;28;20229;-68
2023/12/25 01:35:34;;;;;;;1.57;0.90;;;;;;;;;;10290399;28;20210;-68
2023/12/25 01:40:35;;;;;;;0.90;0.83;;;;;;;;;;10290091;28;20248;-68
2023/12/25 01:45:35;;;;;;;0.93;0.93;;;;;;;;;;10289887;28;20199;-68
2023/12/25 01:50:35;;;;;;;1.00;0.90;;;;;;;;;;10289715;28;20230;-68
2023/12/25 01:55:36;;;;;;;1.17;0.77;;;;;;;;;;10289611;28;20212;-68
2023/12/25 02:00:36;;;;;;;1.90;0.67;;;;;;;;;;10271738;28;20268;-68
2023/12/25 02:05:36;;;;;;;2.77;1.30;;;;;;;;;;10288625;28;20446;-68
2023/12/25 02:10:39;;;;;;;4.80;0.87;;;;;;;;;;10288535;28;20230;-68
2023/12/25 02:15:40;;;;;;;0.90;0.90;;;;;;;;;;10288838;28;20253;-68
2023/12/25 02:20:40;;;;;;;2.03;0.80;;;;;;;;;;10265791;28;20301;-68
2023/12/25 02:25:52;;;;;;;1.43;0.83;;;;;;;;;;10265550;28;20680;-68
2023/12/25 02:30:52;;;;;;;0.70;0.70;;;;;;;;;;10287918;28;20516;-68
2023/12/25 02:35:52;;;;;;;0.70;0.70;;;;;;;;;;10288219;28;20278;-68
2023/12/25 02:40:52;;;;;;;2.30;1.07;;;;;;;;;;10287688;28;20233;-68
2023/12/25 02:45:52;;;;;;;0.60;0.60;;;;;;;;;;10287508;28;20248;-68
2023/12/25 02:50:52;;;;;;;1.77;0.80;;;;;;;;;;10287241;28;20237;-68
2023/12/25 02:55:53;;;;;;;2.00;0.87;;;;;;;;;;10287123;28;20194;-68
2023/12/25 03:00:54;;;;;;;1.20;1.07;;;;;;;;;;10269585;28;20233;-68
2023/12/25 03:05:54;;;;;;;1.13;0.80;;;;;;;;;;10286767;28;20201;-68
2023/12/25 03:10:55;;;;;;;1.27;0.83;;;;;;;;;;10287044;28;20478;-68
2023/12/25 03:15:55;;;;;;;1.07;0.77;;;;;;;;;;10287211;28;20297;-68
2023/12/25 03:20:55;;;;;;;1.10;0.70;;;;;;;;;;10291953;28;20210;-68
2023/12/25 03:25:56;;;;;;;0.73;0.73;;;;;;;;;;10295097;28;20187;-68
2023/12/25 03:30:57;;;;;;;1.10;1.00;;;;;;;;;;10295204;28;20222;-68
2023/12/25 03:35:57;;;;;;;0.80;0.70;;;;;;;;;;10294787;28;20277;-68
2023/12/25 03:40:57;;;;;;;1.87;1.00;;;;;;;;;;10318348;23;20255;-68
2023/12/25 03:45:59;;;;;;;0.70;0.70;;;;;;;;;;10411243;28;20263;-69
2023/12/25 03:50:59;;;;;;;0.70;0.70;;;;;;;;;;10403930;28;20225;-69
2023/12/25 03:56:03;;;;;;;0.70;0.70;;;;;;;;;;10375175;28;20243;-69
2023/12/25 04:01:03;;;;;;;2.10;0.80;;;;;;;;;;10373188;28;20548;-68
2023/12/25 04:06:03;;;;;;;0.67;0.67;;;;;;;;;;10374559;28;20193;-68
2023/12/25 04:11:03;;;;;;;1.20;0.60;;;;;;;;;;10372774;28;20498;-69
2023/12/25 04:16:04;;;;;;;0.60;0.60;;;;;;;;;;10372858;28;20213;-68
2023/12/25 04:21:04;;;;;;;0.73;0.70;;;;;;;;;;10374079;28;20300;-69
2023/12/25 04:26:04;;;;;;;0.57;0.57;;;;;;;;;;10372261;28;20213;-69
2023/12/25 04:31:05;;;;;;;0.50;0.50;;;;;;;;;;10372474;28;20213;-69
2023/12/25 04:36:08;;;;;;;1.17;0.70;;;;;;;;;;10373334;28;20212;-69
2023/12/25 04:41:08;;;;;;;0.60;0.60;;;;;;;;;;10371766;28;20237;-68
2023/12/25 04:46:09;;;;;;;0.50;0.50;;;;;;;;;;10371853;28;20185;-68
2023/12/25 04:51:09;;;;;;;0.60;0.60;;;;;;;;;;10371237;28;20220;-68
2023/12/25 04:56:10;;;;;;;0.50;0.50;;;;;;;;;;10370218;28;20178;-68
2023/12/25 05:01:10;;;;;;;0.50;0.50;;;;;;;;;;10371875;28;20495;-68
2023/12/25 05:06:11;;;;;;;1.03;0.60;;;;;;;;;;10372257;28;20189;-68
2023/12/25 05:11:11;;;;;;;2.10;0.63;;;;;;;;;;10370668;28;20723;-69
2023/12/25 05:16:11;;;;;;;0.93;0.70;;;;;;;;;;10369052;28;20646;-68
2023/12/25 05:21:11;;;;;;;0.50;0.50;;;;;;;;;;10371713;28;20466;-68
2023/12/25 05:26:12;;;;;;;0.73;0.60;;;;;;;;;;10371185;28;20193;-69
2023/12/25 05:31:13;;;;;;;0.60;0.60;;;;;;;;;;10371488;28;20300;-68
2023/12/25 05:36:13;;;;;;;0.60;0.60;;;;;;;;;;10369615;28;20280;-68
2023/12/25 05:41:13;;;;;;;0.80;0.50;;;;;;;;;;10370113;28;20311;-68
2023/12/25 05:46:14;;;;;;;0.50;0.50;;;;;;;;;;10370560;28;20264;-68
2023/12/25 05:51:14;;;;;;;0.60;0.50;;;;;;;;;;10370163;28;20217;-68
2023/12/25 05:56:14;;;;;;;0.77;0.77;;;;;;;;;;10369113;28;20189;-68
2023/12/25 06:01:14;;;;;;;0.50;0.50;;;;;;;;;;10369887;28;20322;-68
2023/12/25 06:06:14;;;;;;;0.60;0.60;;;;;;;;;;10369843;28;20201;-69
2023/12/25 06:11:15;;;;;;;0.50;0.50;;;;;;;;;;10369508;28;20287;-68
2023/12/25 06:16:15;;;;;;;0.50;0.50;;;;;;;;;;10368205;28;20189;-68
2023/12/25 06:21:15;;;;;;;0.80;0.60;;;;;;;;;;10369100;28;20217;-68
2023/12/25 06:26:15;;;;;;;0.50;0.50;;;;;;;;;;10369171;28;20212;-67
2023/12/25 06:31:15;;;;;;;0.50;0.50;;;;;;;;;;10367286;28;20730;-68
2023/12/25 06:36:16;;;;;;;0.77;0.50;;;;;;;;;;10368854;28;20251;-67
2023/12/25 06:41:16;;;;;;;0.70;0.70;;;;;;;;;;10368206;28;20255;-67
2023/12/25 06:46:16;;;;;;;0.50;0.50;;;;;;;;;;10368321;28;20205;-67
2023/12/25 06:51:16;;;;;;;0.50;0.50;;;;;;;;;;10366914;28;20230;-68
2023/12/25 06:56:17;;;;;;;0.50;0.50;;;;;;;;;;10367341;28;20190;-67
2023/12/25 07:01:23;;;;;;;0.60;0.60;;;;;;;;;;10368258;28;20213;-68
2023/12/25 07:06:23;;;;;;;0.50;0.50;;;;;;;;;;10368028;28;20198;-68
2023/12/25 07:11:23;;;;;;;0.53;0.53;;;;;;;;;;10366397;28;20221;-68
2023/12/25 07:16:23;;;;;;;1.37;0.70;;;;;;;;;;10367893;28;20181;-68
2023/12/25 07:21:24;;;;;;;1.33;0.50;;;;;;;;;;10367532;28;20201;-68
2023/12/25 07:26:24;;;;;;;0.60;0.60;;;;;;;;;;10367780;28;20663;-68
2023/12/25 07:31:24;;;;;;;1.33;1.23;;;;;;;;;;10365668;28;20217;-68
2023/12/25 07:36:24;;;;;;;0.67;0.67;;;;;;;;;;10367280;28;20190;-68
2023/12/25 07:41:24;;;;;;;1.07;0.70;;;;;;;;;;10362209;28;20229;-68
2023/12/25 07:46:25;;;;;;;0.87;0.60;;;;;;;;;;10360811;28;20203;-67
2023/12/25 07:51:26;;;;;;;0.60;0.60;;;;;;;;;;10365724;28;20225;-67
2023/12/25 07:56:26;;;;;;;0.60;0.60;;;;;;;;;;10366499;28;20188;-67
2023/12/25 08:01:27;;;;;;;0.93;0.60;;;;;;;;;;10366882;28;20699;-68
2023/12/25 08:06:27;;;;;;;0.60;0.60;;;;;;;;;;10368747;28;20205;-68
2023/12/25 08:11:27;;;;;;;0.53;0.53;;;;;;;;;;10374374;28;20217;-68
2023/12/25 08:16:27;;;;;;;0.60;0.60;;;;;;;;;;10374156;28;20649;-67
2023/12/25 08:21:28;;;;;;;0.50;0.50;;;;;;;;;;10373768;28;20228;-68
2023/12/25 08:26:28;;;;;;;0.70;0.70;;;;;;;;;;10371941;28;20197;-68
2023/12/25 08:31:28;;;;;;;0.70;0.70;;;;;;;;;;10373328;28;20562;-68
2023/12/25 08:36:28;;;;;;;2.10;1.33;;;;;;;;;;10373477;28;20186;-68
2023/12/25 08:41:28;;;;;;;0.73;0.73;;;;;;;;;;10372855;28;20750;-68
2023/12/25 08:46:28;;;;;;;1.10;0.80;;;;;;;;;;10371508;28;20237;-68
2023/12/25 08:51:29;;;;;;;0.60;0.60;;;;;;;;;;10372591;28;20225;-68
2023/12/25 08:56:29;;;;;;;0.60;0.60;;;;;;;;;;10372566;28;20189;-70
2023/12/25 09:01:29;;;;;;;0.60;0.60;;;;;;;;;;10372138;28;20209;-68
2023/12/25 09:06:29;;;;;;;0.50;0.50;;;;;;;;;;10370903;28;20247;-69
2023/12/25 09:11:30;;;;;;;0.63;0.63;;;;;;;;;;10371583;28;20598;-68
2023/12/25 09:16:30;;;;;;;0.60;0.60;;;;;;;;;;10370908;28;20205;-68
2023/12/25 09:21:36;;;;;;;0.70;0.70;;;;;;;;;;10371429;28;20216;-68
2023/12/25 09:26:36;;;;;;;0.60;0.60;;;;;;;;;;10361412;28;20484;-68
2023/12/25 09:31:36;;;;;;;0.60;0.60;;;;;;;;;;10365866;28;20316;-68
2023/12/25 09:36:37;;;;;;;0.90;0.90;;;;;;;;;;10371014;28;20286;-68
2023/12/25 09:41:39;;;;;;;0.60;0.60;;;;;;;;;;10369051;28;20486;-67
2023/12/25 09:46:40;;;;;;;1.97;0.70;;;;;;;;;;10370483;28;20553;-68
2023/12/25 09:51:42;;;;;;;0.73;0.73;;;;;;;;;;10369992;28;20225;-67
2023/12/25 09:56:43;;;;;;;0.67;0.67;;;;;;;;;;10367986;28;20189;-67
2023/12/25 10:01:43;;;;;;;0.73;0.73;;;;;;;;;;10365830;28;20216;-67
2023/12/25 10:06:44;;;;;;;0.77;0.70;;;;;;;;;;10367971;28;20200;-67
2023/12/25 10:11:44;;;;;;;0.50;0.50;;;;;;;;;;10368205;28;20225;-67
2023/12/25 10:16:44;;;;;;;0.60;0.60;;;;;;;;;;10369329;28;20268;-68
2023/12/25 10:21:45;;;;;;;0.60;0.60;;;;;;;;;;10367838;28;20691;-67
2023/12/25 10:26:45;;;;;;;2.93;1.60;;;;;;;;;;10368961;28;20219;-68
2023/12/25 10:31:47;;;;;;;2.23;0.70;;;;;;;;;;10368770;28;20212;-68
2023/12/25 10:36:49;;;;;;;0.57;0.57;;;;;;;;;;10367312;28;20190;-68
2023/12/25 10:41:50;;;;;;;3.50;2.60;;;;;;;;;;10366834;28;20244;-69
2023/12/25 10:46:50;;;;;;;1.10;1.10;;;;;;;;;;10368527;28;20223;-69
2023/12/25 10:51:51;;;;;;;0.70;0.70;;;;;;;;;;10368010;28;20221;-69
2023/12/25 10:56:51;;;;;;;0.50;0.50;;;;;;;;;;10367552;28;20200;-68
2023/12/25 11:01:52;;;;;;;0.60;0.60;;;;;;;;;;10367043;28;20576;-69
2023/12/25 11:06:54;;;;;;;0.50;0.50;;;;;;;;;;10368096;28;20738;-69
2023/12/25 11:11:55;;;;;;;0.60;0.60;;;;;;;;;;10367453;28;20220;-68
2023/12/25 11:16:56;;;;;;;0.60;0.60;;;;;;;;;;10366127;28;20543;-68
2023/12/25 11:21:56;;;;;;;0.77;0.77;;;;;;;;;;10365293;28;20209;-68
2023/12/25 11:27:02;;;;;;;0.63;0.63;;;;;;;;;;10363270;28;20679;-69
2023/12/25 11:32:06;;;;;;;0.60;0.60;;;;;;;;;;10367264;28;20217;-68
2023/12/25 11:37:17;;;;;;;0.60;0.60;;;;;;;;;;10365875;28;20189;-69
2023/12/25 11:42:17;;;;;;;0.70;0.70;;;;;;;;;;10368783;28;20371;-68
2023/12/25 11:47:25;;;;;;;0.60;0.60;;;;;;;;;;10375071;28;20256;-68
2023/12/25 11:52:46;;;;;;;0.50;0.50;;;;;;;;;;10374998;28;20703;-68
2023/12/25 11:57:46;;;;;;;0.60;0.60;;;;;;;;;;10372667;28;20629;-70
2023/12/25 12:02:47;;;;;;;0.60;0.60;;;;;;;;;;10374639;28;20213;-68
2023/12/25 12:07:47;;;;;;;0.70;0.70;;;;;;;;;;10374418;28;20672;-68
2023/12/25 12:12:48;;;;;;;1.20;0.93;;;;;;;;;;10373771;28;20224;-68
2023/12/25 12:17:48;;;;;;;0.50;0.50;;;;;;;;;;10372937;28;20189;-68
2023/12/25 12:22:48;;;;;;;0.50;0.50;;;;;;;;;;10373793;28;20221;-68
2023/12/25 12:27:49;;;;;;;0.60;0.60;;;;;;;;;;10373568;28;20193;-69
2023/12/25 12:32:50;;;;;;;0.80;0.80;;;;;;;;;;10372147;28;20298;-68
2023/12/25 12:37:53;;;;;;;0.70;0.70;;;;;;;;;;10373286;28;20686;-68
2023/12/25 12:42:53;;;;;;;1.03;1.00;;;;;;;;;;10373016;28;20233;-68
2023/12/25 12:47:55;;;;;;;0.73;0.70;;;;;;;;;;10372885;28;20243;-67
2023/12/25 12:52:55;;;;;;;0.50;0.50;;;;;;;;;;10370041;28;20225;-68
2023/12/25 12:57:55;;;;;;;0.50;0.50;;;;;;;;;;10372961;28;20182;-67
2023/12/25 13:02:58;;;;;;;0.50;0.50;;;;;;;;;;10372533;28;20598;-67
2023/12/25 13:07:58;;;;;;;0.50;0.50;;;;;;;;;;10369639;28;20284;-67
2023/12/25 13:12:58;;;;;;;0.80;0.80;;;;;;;;;;10369512;28;20221;-67
2023/12/25 13:18:00;;;;;;;1.77;1.10;;;;;;;;;;10361711;28;20700;-67
2023/12/25 13:23:01;;;;;;;0.60;0.60;;;;;;;;;;10359509;28;20205;-67
2023/12/25 13:28:01;;;;;;;0.60;0.60;;;;;;;;;;10358682;28;20189;-67
2023/12/25 13:33:02;;;;;;;0.60;0.60;;;;;;;;;;10357611;28;20232;-67
2023/12/25 13:38:03;;;;;;;0.60;0.60;;;;;;;;;;10369529;28;20304;-68
2023/12/25 13:43:03;;;;;;;0.50;0.50;;;;;;;;;;10369702;28;20502;-67
2023/12/25 13:48:03;;;;;;;0.60;0.60;;;;;;;;;;10368851;28;20950;-67
2023/12/25 13:53:03;;;;;;;0.63;0.63;;;;;;;;;;10368617;28;20492;-67
2023/12/25 13:58:05;;;;;;;1.33;0.70;;;;;;;;;;10369905;28;20197;-67
2023/12/25 14:03:05;;;;;;;0.50;0.50;;;;;;;;;;10369105;28;20212;-67
2023/12/25 14:08:05;;;;;;;0.60;0.60;;;;;;;;;;10369630;28;20668;-67
2023/12/25 14:13:05;;;;;;;0.93;0.60;;;;;;;;;;10367665;28;20236;-67
2023/12/25 14:18:05;;;;;;;0.53;0.53;;;;;;;;;;10369176;28;20199;-67
2023/12/25 14:23:06;;;;;;;0.57;0.57;;;;;;;;;;10369645;28;20213;-67
2023/12/25 14:28:06;;;;;;;0.77;0.60;;;;;;;;;;10368987;28;20219;-67
2023/12/25 14:33:07;;;;;;;0.60;0.60;;;;;;;;;;10367459;28;20232;-67
2023/12/25 14:38:09;;;;;;;0.60;0.60;;;;;;;;;;10368567;28;20428;-67
2023/12/25 14:43:09;;;;;;;0.60;0.60;;;;;;;;;;10368188;28;20676;-67
2023/12/25 14:48:09;;;;;;;0.70;0.70;;;;;;;;;;10366906;28;20244;-67
2023/12/25 14:53:09;;;;;;;6.60;3.30;;;;;;;;;;10368103;28;20213;-68
2023/12/25 14:58:10;;;;;;;7.97;4.93;;;;;;;;;;10368320;28;20205;-67
2023/12/25 15:03:11;;;;;;;1.73;0.70;;;;;;;;;;10368007;28;20715;-67
2023/12/25 15:08:12;;;;;;;1.13;1.00;;;;;;;;;;10366218;28;20185;-67
2023/12/25 15:13:12;;;;;;;0.90;0.90;;;;;;;;;;10367693;28;20219;-67
2023/12/25 15:18:13;;;;;;;1.80;1.70;;;;;;;;;;10361650;28;20731;-67
2023/12/25 15:23:13;;;;;;;3.80;2.10;;;;;;;;;;10360262;28;20236;-66
2023/12/25 15:28:14;;;;;;;1.33;1.23;;;;;;;;;;10360164;28;20181;-67
2023/12/25 15:33:14;;;;;;;0.90;0.90;;;;;;;;;;10365896;28;20212;-66
2023/12/25 15:38:14;;;;;;;1.90;1.10;;;;;;;;;;10362727;28;20679;-66
2023/12/25 15:43:14;;;;;;;0.60;0.60;;;;;;;;;;10365924;28;20608;-66
2023/12/25 15:48:15;;;;;;;0.70;0.70;;;;;;;;;;10364840;28;20343;-66
2023/12/25 15:53:15;;;;;;;0.63;0.63;;;;;;;;;;10366897;28;20271;-66
2023/12/25 15:58:15;;;;;;;0.70;0.70;;;;;;;;;;10361725;28;20177;-67
2023/12/25 16:03:15;;;;;;;1.43;0.70;;;;;;;;;;10366333;28;20693;-67
2023/12/25 16:08:15;;;;;;;2.00;0.97;;;;;;;;;;10363821;28;20284;-67
2023/12/25 16:13:17;;;;;;;0.80;0.80;;;;;;;;;;10364522;28;20221;-67
2023/12/25 16:18:17;;;;;;;2.27;0.70;;;;;;;;;;10356619;28;20196;-67
2023/12/25 16:23:17;;;;;;;0.70;0.70;;;;;;;;;;10362476;28;20213;-66
2023/12/25 16:28:17;;;;;;;0.60;0.60;;;;;;;;;;10370048;28;20577;-66
2023/12/25 16:33:17;;;;;;;1.57;1.37;;;;;;;;;;10372474;28;20765;-66
2023/12/25 16:38:18;;;;;;;1.57;0.80;;;;;;;;;;10373035;28;20260;-66
2023/12/25 16:43:18;;;;;;;0.70;0.70;;;;;;;;;;10370075;28;20649;-66
2023/12/25 16:48:18;;;;;;;1.30;1.20;;;;;;;;;;10372444;28;20193;-66
2023/12/25 16:53:18;;;;;;;1.63;1.20;;;;;;;;;;10372264;28;20586;-66
2023/12/25 16:58:18;;;;;;;2.03;1.70;;;;;;;;;;10370440;28;20185;-69
2023/12/25 17:03:19;;;;;;;3.47;2.10;;;;;;;;;;10369317;28;20221;-66
2023/12/25 17:08:20;;;;;;;6.43;3.60;;;;;;;;;;10370932;28;20280;-66
2023/12/25 17:13:20;;;;;;;20.13;10.37;;;;;;;;;;10360127;28;20217;-66
2023/12/25 17:18:20;;;;;;;2.83;2.60;;;;;;;;;;10369214;28;20190;-66
2023/12/25 17:23:20;;;;;;;2.67;2.00;;;;;;;;;;10366200;28;20209;-65
2023/12/25 17:28:20;;;;;;;2.17;2.07;;;;;;;;;;10365991;28;20189;-66
2023/12/25 17:33:21;;;;;;;2.47;2.27;;;;;;;;;;10369927;28;20221;-66
2023/12/25 17:38:21;;;;;;;3.60;1.50;;;;;;;;;;10365750;28;20296;-66
2023/12/25 17:43:21;;;;;;;1.57;1.20;;;;;;;;;;10368628;28;20229;-66
2023/12/25 17:48:22;;;;;;;1.13;1.13;;;;;;;;;;10359909;28;20667;-66
2023/12/25 17:53:22;;;;;;;1.80;1.70;;;;;;;;;;10367423;28;20221;-66
2023/12/25 17:58:23;;;;;;;1.23;1.17;;;;;;;;;;10368755;28;20185;-67
2023/12/25 18:03:23;;;;;;;2.03;1.83;;;;;;;;;;10364192;28;20229;-67
2023/12/25 18:08:24;;;;;;;15.57;9.07;;;;;;;;;;10369569;28;20806;-67
2023/12/25 18:13:25;;;;;;;2.03;1.73;;;;;;;;;;10369956;28;20236;-67
2023/12/25 18:18:25;;;;;;;1.17;1.13;;;;;;;;;;10368125;28;20247;-67
2023/12/25 18:23:26;;;;;;;0.97;0.77;;;;;;;;;;10369210;28;20236;-66
2023/12/25 18:28:26;;;;;;;0.90;0.90;;;;;;;;;;10368750;28;20284;-67
2023/12/25 18:33:26;;;;;;;0.60;0.60;;;;;;;;;;10368670;28;20236;-68
2023/12/25 18:38:27;;;;;;;0.60;0.60;;;;;;;;;;10366226;28;20197;-67
2023/12/25 18:43:27;;;;;;;1.70;0.60;;;;;;;;;;10368016;28;20244;-67
2023/12/25 18:48:27;;;;;;;3.17;2.23;;;;;;;;;;10368330;28;20572;-67
2023/12/25 18:53:29;;;;;;;0.80;0.80;;;;;;;;;;10367560;28;20221;-67
2023/12/25 18:58:31;;;;;;;0.90;0.90;;;;;;;;;;10366414;28;20259;-67
2023/12/25 19:03:31;;;;;;;0.67;0.67;;;;;;;;;;10360524;28;20213;-67
2023/12/25 19:08:31;;;;;;;0.80;0.80;;;;;;;;;;10357180;28;20580;-67
2023/12/25 19:13:31;;;;;;;0.90;0.90;;;;;;;;;;10356635;28;20221;-67
2023/12/25 19:18:32;;;;;;;2.33;2.13;;;;;;;;;;10355667;28;20186;-67
2023/12/25 19:23:32;;;;;;;2.20;2.00;;;;;;;;;;10358091;28;20223;-67
2023/12/25 19:28:32;;;;;;;0.90;0.90;;;;;;;;;;10357626;28;20544;-66
2023/12/25 19:33:34;;;;;;;0.90;0.90;;;;;;;;;;10365336;28;20236;-66
2023/12/25 19:38:34;;;;;;;1.20;1.10;;;;;;;;;;10366415;28;20193;-66
2023/12/25 19:43:34;;;;;;;1.40;1.30;;;;;;;;;;10366643;28;20245;-66
2023/12/25 19:48:34;;;;;;;0.73;0.73;;;;;;;;;;10367000;28;20213;-67
2023/12/25 19:53:36;;;;;;;1.07;1.07;;;;;;;;;;10364735;28;20229;-66
2023/12/25 19:58:36;;;;;;;1.40;1.30;;;;;;;;;;10366801;28;20204;-67
2023/12/25 20:03:36;;;;;;;1.63;1.53;;;;;;;;;;10371480;28;20231;-67
2023/12/25 20:08:36;;;;;;;0.80;0.80;;;;;;;;;;10374450;28;20197;-67
2023/12/25 20:13:37;;;;;;;1.00;1.00;;;;;;;;;;10372357;28;20240;-66
2023/12/25 20:18:37;;;;;;;1.33;1.00;;;;;;;;;;10373931;28;20717;-66
2023/12/25 20:23:37;;;;;;;1.07;0.90;;;;;;;;;;10373548;28;20237;-66
2023/12/25 20:28:37;;;;;;;1.20;0.90;;;;;;;;;;10373538;28;20197;-67
2023/12/25 20:33:39;;;;;;;1.90;0.90;;;;;;;;;;10371458;28;20217;-67
2023/12/25 20:38:40;;;;;;;1.63;1.53;;;;;;;;;;10372994;28;20679;-68
2023/12/25 20:43:40;;;;;;;2.10;1.70;;;;;;;;;;10372574;28;20276;-67
2023/12/25 20:48:40;;;;;;;0.90;0.90;;;;;;;;;;10372814;28;20867;-67
2023/12/25 20:53:41;;;;;;;0.70;0.70;;;;;;;;;;10371079;28;20208;-67
2023/12/25 20:58:41;;;;;;;0.70;0.70;;;;;;;;;;10372615;28;20189;-67
2023/12/25 21:03:41;;;;;;;1.13;0.77;;;;;;;;;;10372421;28;20350;-68
2023/12/25 21:08:42;;;;;;;1.80;0.70;;;;;;;;;;10370279;28;20193;-68
2023/12/25 21:13:44;;;;;;;0.93;0.80;;;;;;;;;;10370574;28;20583;-68
2023/12/25 21:18:44;;;;;;;1.73;1.63;;;;;;;;;;10371427;28;20247;-68
2023/12/25 21:23:44;;;;;;;1.00;1.00;;;;;;;;;;10371012;28;20201;-68
2023/12/25 21:28:44;;;;;;;0.80;0.80;;;;;;;;;;10369802;28;20185;-68
2023/12/25 21:33:44;;;;;;;0.90;0.83;;;;;;;;;;10370366;28;20723;-68
2023/12/25 21:38:45;;;;;;;0.73;0.73;;;;;;;;;;10370886;28;20567;-67
2023/12/25 21:43:45;;;;;;;0.80;0.80;;;;;;;;;;10369974;28;20232;-68
2023/12/25 21:48:45;;;;;;;0.73;0.73;;;;;;;;;;10368683;28;20209;-68
2023/12/25 21:53:45;;;;;;;0.70;0.70;;;;;;;;;;10370022;28;20224;-68
2023/12/25 21:58:46;;;;;;;0.60;0.60;;;;;;;;;;10369731;28;20193;-68
2023/12/25 22:03:46;;;;;;;0.60;0.60;;;;;;;;;;10368115;28;20205;-68
2023/12/25 22:08:46;;;;;;;0.70;0.70;;;;;;;;;;10367469;28;20240;-67
2023/12/25 22:13:47;;;;;;;0.70;0.70;;;;;;;;;;10369448;28;20224;-68
2023/12/25 22:18:47;;;;;;;0.70;0.70;;;;;;;;;;10369203;28;20686;-68
2023/12/25 22:23:47;;;;;;;0.57;0.57;;;;;;;;;;10368439;28;20366;-67
2023/12/25 22:28:47;;;;;;;0.97;0.87;;;;;;;;;;10367513;28;20477;-68
2023/12/25 22:33:51;;;;;;;0.90;0.90;;;;;;;;;;10368258;28;20259;-67
2023/12/25 22:38:51;;;;;;;0.70;0.70;;;;;;;;;;10368785;28;20193;-67
2023/12/25 22:43:55;;;;;;;0.80;0.80;;;;;;;;;;10366283;28;20237;-66
2023/12/25 22:48:56;;;;;;;0.67;0.67;;;;;;;;;;10368333;28;20692;-67
2023/12/25 22:53:57;;;;;;;0.60;0.60;;;;;;;;;;10367679;28;20221;-68
2023/12/25 22:58:57;;;;;;;0.60;0.60;;;;;;;;;;10367753;28;20192;-68
2023/12/25 23:03:58;;;;;;;2.37;0.67;;;;;;;;;;10366270;28;20262;-68
2023/12/25 23:08:58;;;;;;;0.80;0.80;;;;;;;;;;10367745;28;20193;-67
2023/12/25 23:13:58;;;;;;;0.93;0.93;;;;;;;;;;10367519;28;20221;-67
2023/12/25 23:18:58;;;;;;;1.13;0.70;;;;;;;;;;10365610;28;20189;-66
2023/12/25 23:23:58;;;;;;;1.00;0.90;;;;;;;;;;10365921;28;20703;-67
2023/12/25 23:28:59;;;;;;;0.70;0.70;;;;;;;;;;10367764;28;20220;-67
2023/12/25 23:33:59;;;;;;;0.90;0.90;;;;;;;;;;10367524;28;20225;-67
2023/12/25 23:38:59;;;;;;;0.80;0.80;;;;;;;;;;10373817;28;20209;-67
2023/12/25 23:43:59;;;;;;;0.70;0.70;;;;;;;;;;10373672;28;20244;-67
2023/12/25 23:49:00;;;;;;;0.90;0.70;;;;;;;;;;10375517;28;20205;-67
2023/12/25 23:54:01;;;;;;;0.70;0.70;;;;;;;;;;10375107;28;20229;-67
2023/12/25 23:59:02;;;;;;;0.70;0.70;;;;;;;;;;10373554;28;20197;-67
